createdAt,value
2018-09-29T10:20:07.575Z,2.90
2018-09-29T10:22:35.849Z,2.73
2018-09-29T10:25:04.005Z,12.00
2018-09-29T10:27:32.199Z,4.50
2018-09-29T10:30:00.333Z,2.50
2018-09-29T10:32:28.518Z,2.83
2018-09-29T10:34:56.685Z,2.40
2018-09-29T10:37:24.857Z,2.87
2018-09-29T10:39:53.008Z,2.80
2018-09-29T10:42:21.244Z,2.77
2018-09-29T10:44:49.716Z,2.70
2018-09-29T10:47:18.001Z,2.93
2018-09-29T10:49:46.232Z,2.40
2018-09-29T10:52:14.523Z,2.27
2018-09-29T10:54:43.504Z,2.50
2018-09-29T10:57:11.719Z,2.90
2018-09-29T10:59:39.897Z,2.57
2018-09-29T11:02:08.119Z,3.20
2018-09-29T11:04:36.301Z,2.20
2018-09-29T11:07:04.478Z,2.27
2018-09-29T11:09:32.750Z,2.03
2018-09-29T11:12:00.918Z,1.97
2018-09-29T11:14:29.470Z,1.90
2018-09-29T11:16:58.205Z,2.03
2018-09-29T11:19:26.469Z,2.20
2018-09-29T11:21:54.644Z,2.13
2018-09-29T11:24:22.850Z,2.57
2018-09-29T11:26:51.023Z,2.40
2018-09-29T11:29:19.182Z,3.23
2018-09-29T11:31:47.355Z,2.50
2018-09-29T11:34:15.504Z,1.97
2018-09-29T11:36:43.677Z,2.13
2018-09-29T11:39:12.778Z,2.20
2018-09-29T11:41:41.249Z,2.50
2018-09-29T11:44:09.985Z,2.20
2018-09-29T11:46:38.185Z,2.10
2018-09-29T11:49:06.485Z,1.80
2018-09-29T11:51:34.799Z,2.07
2018-09-29T11:54:03.152Z,2.30
2018-09-29T11:56:31.309Z,2.20
2018-09-29T11:58:59.860Z,2.07
2018-09-29T12:01:28.111Z,2.20
2018-09-29T12:03:56.457Z,2.10
2018-09-29T12:06:24.647Z,2.50
2018-09-29T12:08:52.838Z,1.90
2018-09-29T12:11:21.142Z,2.10
2018-09-29T12:13:49.400Z,2.00
2018-09-29T12:16:17.537Z,1.70
2018-09-29T12:18:45.714Z,2.00
2018-09-29T12:21:13.965Z,1.80
2018-09-29T12:23:42.103Z,1.90
2018-09-29T12:26:10.314Z,1.90
2018-09-29T12:28:38.824Z,2.23
2018-09-29T12:31:07.080Z,1.73
2018-09-29T12:33:35.348Z,1.67
2018-09-29T12:36:03.696Z,1.77
2018-09-29T12:38:31.902Z,2.00
2018-09-29T12:41:00.394Z,1.80
2018-09-29T12:43:28.621Z,3.73
2018-09-29T12:45:56.818Z,2.00
2018-09-29T12:48:24.977Z,1.50
2018-09-29T12:50:53.267Z,2.00
2018-09-29T12:53:21.436Z,1.63
2018-09-29T12:55:49.625Z,1.63
2018-09-29T12:58:17.806Z,1.67
2018-09-29T13:00:46.083Z,1.80
2018-09-29T13:03:14.251Z,1.80
2018-09-29T13:05:42.560Z,1.90
2018-09-29T13:08:10.814Z,2.00
2018-09-29T13:10:39.053Z,1.60
2018-09-29T13:13:07.284Z,1.60
2018-09-29T13:15:35.522Z,1.57
2018-09-29T13:18:03.677Z,1.40
2018-09-29T13:20:31.821Z,1.53
2018-09-29T13:23:00.103Z,1.50
2018-09-29T13:25:28.193Z,1.67
2018-09-29T13:27:56.353Z,1.90
2018-09-29T13:30:24.498Z,1.60
2018-09-29T13:32:52.754Z,1.60
2018-09-29T13:35:20.906Z,1.60
2018-09-29T13:37:49.132Z,1.30
2018-09-29T13:40:17.277Z,1.63
2018-09-29T13:42:45.446Z,1.63
2018-09-29T13:45:13.617Z,1.40
2018-09-29T13:47:41.902Z,1.40
2018-09-29T13:50:10.081Z,1.80
2018-09-29T13:52:38.252Z,1.57
2018-09-29T13:55:06.409Z,1.80
2018-09-29T13:57:34.578Z,1.90
2018-09-29T14:00:02.726Z,1.53
2018-09-29T14:02:30.914Z,1.67
2018-09-29T14:04:59.077Z,1.67
2018-09-29T14:07:27.224Z,1.60
2018-09-29T14:09:55.361Z,1.77
2018-09-29T14:12:23.531Z,1.70
2018-09-29T14:14:51.726Z,1.53
2018-09-29T14:17:19.882Z,1.63
2018-09-29T14:19:48.044Z,1.80
2018-09-29T14:22:16.197Z,1.47
2018-09-29T14:24:44.365Z,1.40
2018-09-29T14:27:12.500Z,2.13
2018-09-29T14:29:40.645Z,1.80
2018-09-29T14:32:08.805Z,2.10
2018-09-29T14:34:36.947Z,2.17
2018-09-29T14:37:05.168Z,1.70
2018-09-29T14:39:33.282Z,1.60
2018-09-29T14:42:01.483Z,1.57
2018-09-29T14:44:29.616Z,1.80
2018-09-29T14:46:57.804Z,1.30
2018-09-29T14:49:25.981Z,1.77
2018-09-29T14:51:54.185Z,1.73
2018-09-29T14:54:22.353Z,1.77
2018-09-29T14:56:50.539Z,1.90
2018-09-29T14:59:18.714Z,1.80
2018-09-29T15:01:46.857Z,2.00
2018-09-29T15:04:15.071Z,1.70
2018-09-29T15:06:43.228Z,1.70
2018-09-29T15:09:12.381Z,1.60
2018-09-29T15:11:40.692Z,2.20
2018-09-29T15:14:09.482Z,1.93
2018-09-29T15:16:37.655Z,2.03
2018-09-29T15:19:05.825Z,1.80
2018-09-29T15:21:34.057Z,1.70
2018-09-29T15:24:02.219Z,1.70
2018-09-29T15:26:30.869Z,1.80
2018-09-29T15:28:59.122Z,1.90
2018-09-29T15:31:27.405Z,1.50
2018-09-29T15:33:55.570Z,1.70
2018-09-29T15:36:23.705Z,2.13
2018-09-29T15:38:51.902Z,1.83
2018-09-29T15:41:20.047Z,1.90
2018-09-29T15:43:48.297Z,1.80
2018-09-29T15:46:20.588Z,2.00
2018-09-29T15:48:48.899Z,1.90
2018-09-29T15:51:17.660Z,1.43
2018-09-29T15:53:46.108Z,1.70
2018-09-29T15:56:14.445Z,1.63
2018-09-29T15:58:42.643Z,1.80
2018-09-29T16:01:10.868Z,1.60
2018-09-29T16:03:39.094Z,1.90
2018-09-29T16:06:07.276Z,1.73
2018-09-29T16:08:35.475Z,2.00
2018-09-29T16:11:03.855Z,1.90
2018-09-29T16:13:32.051Z,2.10
2018-09-29T16:16:00.290Z,1.90
2018-09-29T16:18:28.539Z,2.07
2018-09-29T16:20:56.741Z,1.97
2018-09-29T16:23:24.923Z,2.27
2018-09-29T16:25:53.069Z,2.00
2018-09-29T16:28:21.233Z,2.50
2018-09-29T16:30:49.633Z,2.30
2018-09-29T16:33:17.788Z,2.10
2018-09-29T16:35:46.082Z,8.90
2018-09-29T16:38:14.464Z,6.23
2018-09-29T16:40:42.737Z,3.07
2018-09-29T16:43:10.908Z,2.43
2018-09-29T16:45:39.053Z,2.70
2018-09-29T16:48:07.233Z,3.27
2018-09-29T16:50:35.565Z,3.43
2018-09-29T16:53:03.793Z,3.43
2018-09-29T16:55:31.996Z,3.33
2018-09-29T16:58:00.350Z,3.77
2018-09-29T17:00:28.509Z,5.30
2018-09-29T17:02:56.905Z,5.07
2018-09-29T17:05:25.247Z,5.10
2018-09-29T17:07:54.247Z,5.27
2018-09-29T17:10:22.668Z,5.13
2018-09-29T17:12:50.917Z,4.80
2018-09-29T17:15:19.106Z,5.37
2018-09-29T17:17:47.465Z,8.27
2018-09-29T17:20:15.655Z,8.97
2018-09-29T17:22:43.888Z,6.40
2018-09-29T17:25:12.109Z,5.73
2018-09-29T17:27:40.785Z,5.37
2018-09-29T17:30:08.949Z,6.07
2018-09-29T17:32:37.114Z,5.80
2018-09-29T17:35:05.605Z,5.90
2018-09-29T17:37:33.771Z,5.87
2018-09-29T17:40:01.957Z,5.60
2018-09-29T17:42:30.094Z,5.57
2018-09-29T17:44:58.242Z,6.20
2018-09-29T17:47:26.373Z,5.93
2018-09-29T17:49:54.545Z,5.97
2018-09-29T17:52:22.689Z,6.33
2018-09-29T17:54:50.972Z,6.70
2018-09-29T17:57:19.145Z,5.53
2018-09-29T17:59:47.589Z,5.63
2018-09-29T18:02:15.770Z,6.23
2018-09-29T18:04:43.981Z,6.53
2018-09-29T18:07:12.891Z,5.47
2018-09-29T18:09:41.110Z,6.07
2018-09-29T18:12:09.264Z,6.30
2018-09-29T18:14:37.533Z,6.53
2018-09-29T18:17:05.742Z,5.97
2018-09-29T18:19:33.906Z,6.30
2018-09-29T18:22:02.105Z,6.97
2018-09-29T18:24:30.256Z,6.90
2018-09-29T18:26:58.408Z,7.10
2018-09-29T18:29:26.580Z,7.27
2018-09-29T18:31:54.717Z,8.10
2018-09-29T18:34:22.899Z,8.50
2018-09-29T18:36:51.154Z,9.80
2018-09-29T18:39:19.357Z,11.13
2018-09-29T18:41:47.593Z,10.70
2018-09-29T18:44:15.764Z,12.33
2018-09-29T18:46:43.926Z,15.20
2018-09-29T18:49:12.145Z,15.53
2018-09-29T18:51:40.351Z,16.23
2018-09-29T18:54:08.534Z,16.20
2018-09-29T18:56:36.727Z,15.97
2018-09-29T18:59:04.897Z,14.73
2018-09-29T19:01:33.037Z,14.70
2018-09-29T19:04:01.232Z,14.67
2018-09-29T19:06:29.397Z,14.60
2018-09-29T19:08:57.574Z,14.73
2018-09-29T19:11:25.721Z,15.30
2018-09-29T19:13:53.912Z,15.40
2018-09-29T19:16:22.079Z,14.83
2018-09-29T19:18:50.231Z,15.53
2018-09-29T19:21:18.404Z,16.40
2018-09-29T19:23:46.609Z,16.73
2018-09-29T19:26:14.776Z,17.03
2018-09-29T19:28:42.956Z,16.33
2018-09-29T19:31:11.129Z,16.33
2018-09-29T19:33:39.417Z,16.03
2018-09-29T19:36:07.618Z,16.67
2018-09-29T19:38:35.789Z,16.00
2018-09-29T19:41:03.984Z,16.03
2018-09-29T19:43:32.209Z,13.20
2018-09-29T19:46:00.490Z,14.00
2018-09-29T19:48:28.750Z,15.27
2018-09-29T19:50:57.005Z,13.37
2018-09-29T19:53:25.193Z,13.30
2018-09-29T19:55:53.365Z,14.17
2018-09-29T19:58:21.513Z,13.87
2018-09-29T20:00:49.680Z,14.40
2018-09-29T20:03:17.870Z,15.67
2018-09-29T20:05:46.069Z,13.87
2018-09-29T20:08:14.273Z,14.60
2018-09-29T20:10:42.413Z,14.77
2018-09-29T20:13:10.564Z,14.23
2018-09-29T20:15:38.717Z,14.30
2018-09-29T20:18:07.169Z,14.13
2018-09-29T20:20:35.522Z,13.30
2018-09-29T20:23:03.708Z,13.60
2018-09-29T20:25:31.883Z,13.40
2018-09-29T20:28:00.077Z,13.63
2018-09-29T20:30:28.224Z,13.07
2018-09-29T20:32:56.360Z,14.40
2018-09-29T20:35:24.532Z,12.33
2018-09-29T20:37:52.848Z,12.03
2018-09-29T20:40:21.015Z,13.07
2018-09-29T20:42:49.163Z,12.77
2018-09-29T20:45:17.420Z,13.10
2018-09-29T20:47:45.578Z,12.33
2018-09-29T20:50:13.756Z,11.47
2018-09-29T20:52:41.957Z,11.30
2018-09-29T20:55:10.141Z,10.90
2018-09-29T20:57:38.518Z,11.90
